Time;durP1;ratioP1;P1;durP2;ratioP2;P2;SDS_P1;SDS_P2;PMS_P1;PMS_P2;Temp;Humidity;BMP_temperature;BMP_pressure;BME280_temperature;BME280_humidity;BME280_pressure;Samples;Min_cycle;Max_cycle;Signal;HPM_P1;HPM_P2
2022/10/05 00:01:54;;;;;;;10.28;4.87;;;;;;;8.94;100.00;100212.17;1686608;85;21188;-67
2022/10/05 00:04:23;;;;;;;7.17;5.22;;;;;;;8.97;100.00;100216.47;1686328;85;21163;-66
2022/10/05 00:07:08;;;;;;;8.33;4.60;;;;;;;8.94;100.00;100214.80;1686824;85;21064;-66
2022/10/05 00:09:36;;;;;;;10.55;5.22;;;;;;;8.91;100.00;100216.67;1686618;85;21110;-65
2022/10/05 00:12:14;;;;;;;7.45;5.35;;;;;;;8.86;100.00;100215.48;1686692;85;21007;-67
2022/10/05 00:14:42;;;;;;;10.10;5.60;;;;;;;8.83;100.00;100218.18;1686609;83;21056;-67
2022/10/05 00:17:19;;;;;;;8.65;5.75;;;;;;;8.81;100.00;100216.05;1686850;85;21269;-68
2022/10/05 00:19:50;;;;;;;7.72;5.40;;;;;;;8.81;100.00;100213.42;1686595;85;21548;-68
2022/10/05 00:22:18;;;;;;;8.33;6.03;;;;;;;8.76;100.00;100224.52;1686159;85;21064;-67
2022/10/05 00:24:47;;;;;;;13.18;6.03;;;;;;;8.73;100.00;100224.61;1685297;85;21068;-68
2022/10/05 00:27:21;;;;;;;9.35;5.67;;;;;;;8.72;100.00;100228.13;1686593;85;21202;-68
2022/10/05 00:29:49;;;;;;;9.13;5.83;;;;;;;8.66;100.00;100229.16;1686503;85;21155;-67
2022/10/05 00:32:16;;;;;;;6.87;5.65;;;;;;;8.64;100.00;100230.12;1686511;85;21164;-65
2022/10/05 00:34:43;;;;;;;11.25;5.85;;;;;;;8.55;100.00;100233.39;1686494;85;21610;-68
2022/10/05 00:37:10;;;;;;;10.50;5.72;;;;;;;8.48;100.00;100234.45;1686572;85;21069;-66
2022/10/05 00:39:38;;;;;;;9.55;6.22;;;;;;;8.43;100.00;100234.19;1686518;85;21029;-68
2022/10/05 00:45:12;;;;;;;11.70;5.97;;;;;;;8.18;100.00;100236.94;1814500;79;28581;-66
2022/10/05 00:48:19;;;;;;;9.58;5.78;;;;;;;8.06;100.00;100244.28;1787759;80;21046;-66
2022/10/05 00:50:59;;;;;;;8.75;6.30;;;;;;;8.06;100.00;100246.45;1787396;80;21350;-66
2022/10/05 00:53:51;;;;;;;12.85;6.25;;;;;;;8.07;100.00;100253.40;1787547;80;21064;-66
2022/10/05 00:56:48;;;;;;;8.53;6.35;;;;;;;8.02;100.00;100260.53;1787771;80;21265;-67
2022/10/05 00:59:44;;;;;;;14.07;6.00;;;;;;;8.03;100.00;100264.00;1787601;80;21026;-67
2022/10/05 01:02:15;;;;;;;10.28;6.65;;;;;;;8.01;100.00;100265.38;1787293;80;20990;-66
2022/10/05 01:05:15;;;;;;;12.80;6.30;;;;;;;8.08;100.00;100269.56;1787125;80;21608;-67
2022/10/05 01:08:06;;;;;;;12.78;5.55;;;;;;;8.14;100.00;100274.67;1787662;80;20969;-67
2022/10/05 01:10:42;;;;;;;9.85;6.42;;;;;;;8.19;100.00;100274.56;1787373;80;20974;-68
2022/10/05 01:13:37;;;;;;;9.55;5.80;;;;;;;8.25;100.00;100282.71;1787533;79;21044;-66
2022/10/05 01:16:35;;;;;;;8.93;5.62;;;;;;;8.30;100.00;100292.63;1786272;80;21027;-67
2022/10/05 01:19:51;;;;;;;9.73;5.47;;;;;;;8.35;100.00;100290.75;1787420;80;21803;-66
2022/10/05 01:22:41;;;;;;;7.87;5.97;;;;;;;8.41;100.00;100295.89;1786819;80;21013;-67
2022/10/05 01:25:31;;;;;;;12.03;5.85;;;;;;;8.46;100.00;100299.25;1787328;80;21001;-66
2022/10/05 01:28:08;;;;;;;13.28;6.67;;;;;;;8.49;100.00;100307.06;1787300;80;21021;-66
2022/10/05 01:30:58;;;;;;;7.62;5.05;;;;;;;8.58;100.00;100304.20;1787490;80;21060;-68
2022/10/05 01:34:03;;;;;;;15.30;5.67;;;;;;;8.64;100.00;100312.81;1787606;80;21134;-68
2022/10/05 01:36:54;;;;;;;10.25;5.72;;;;;;;8.69;100.00;100313.55;1787329;80;22215;-68
2022/10/05 01:39:32;;;;;;;10.82;5.50;;;;;;;8.71;100.00;100322.25;1787520;80;21075;-68
2022/10/05 01:42:13;;;;;;;10.60;5.15;;;;;;;8.70;100.00;100320.08;1787156;80;21005;-66
2022/10/05 01:45:12;;;;;;;9.03;5.00;;;;;;;8.72;100.00;100325.27;1768415;80;21048;-67
2022/10/05 01:47:46;;;;;;;7.87;5.30;;;;;;;8.72;100.00;100329.20;1734173;81;21237;-67
2022/10/05 01:50:46;;;;;;;9.85;5.67;;;;;;;8.72;100.00;100337.09;1751344;81;21060;-67
2022/10/05 01:53:59;;;;;;;6.58;4.70;;;;;;;8.70;100.00;100338.92;1751234;81;22238;-67
2022/10/05 01:56:44;;;;;;;9.03;4.70;;;;;;;8.71;100.00;100344.11;1750677;82;21085;-67
2022/10/05 01:59:41;;;;;;;8.18;4.40;;;;;;;8.72;100.00;100348.91;1750849;82;22167;-67
2022/10/05 02:02:10;;;;;;;6.85;5.03;;;;;;;8.73;100.00;100354.58;1751008;80;21537;-67
2022/10/05 02:04:42;;;;;;;11.48;5.40;;;;;;;8.74;100.00;100350.61;1750416;82;21079;-67
2022/10/05 02:07:17;;;;;;;8.75;4.83;;;;;;;8.76;100.00;100357.12;1750951;82;21100;-67
2022/10/05 02:09:52;;;;;;;9.25;5.17;;;;;;;8.79;100.00;100362.31;1750698;82;21095;-67
2022/10/05 02:12:20;;;;;;;10.15;4.50;;;;;;;8.78;100.00;100364.51;1750914;81;21032;-66
2022/10/05 02:14:52;;;;;;;10.10;4.42;;;;;;;8.80;100.00;100366.65;1750644;80;21203;-68
2022/10/05 02:17:26;;;;;;;11.10;4.55;;;;;;;8.81;100.00;100373.61;1750719;82;21065;-67
2022/10/05 02:20:00;;;;;;;6.30;4.45;;;;;;;8.87;100.00;100385.28;1750794;82;21085;-67
2022/10/05 02:22:47;;;;;;;5.00;4.10;;;;;;;8.90;100.00;100386.50;1722377;82;21044;-66
2022/10/05 02:25:24;;;;;;;9.83;5.10;;;;;;;8.91;100.00;100388.70;1749919;82;21091;-68
2022/10/05 02:27:59;;;;;;;13.15;4.90;;;;;;;8.94;100.00;100396.03;1750983;82;21859;-67
2022/10/05 02:30:26;;;;;;;7.95;4.50;;;;;;;8.93;100.00;100396.09;1750492;82;22108;-68
2022/10/05 02:33:08;;;;;;;6.75;4.80;;;;;;;8.93;100.00;100395.64;1750521;82;21099;-66
2022/10/05 02:35:34;;;;;;;8.00;4.53;;;;;;;8.90;100.00;100399.63;1750901;82;21092;-68
2022/10/05 02:38:14;;;;;;;6.30;4.30;;;;;;;8.93;100.00;100400.89;1721410;82;21083;-67
2022/10/05 02:41:17;;;;;;;10.72;5.30;;;;;;;8.94;100.00;100398.66;1750613;81;21259;-68
2022/10/05 02:43:58;;;;;;;8.93;4.35;;;;;;;8.94;100.00;100400.44;1738211;82;21077;-69
2022/10/05 02:46:35;;;;;;;7.47;4.45;;;;;;;8.96;100.00;100410.00;1750949;82;21108;-67
2022/10/05 02:49:20;;;;;;;8.73;4.33;;;;;;;8.96;100.00;100416.56;1715130;83;21131;-67
2022/10/05 02:52:19;;;;;;;5.15;4.30;;;;;;;8.97;100.00;100418.73;1687719;85;21061;-68
2022/10/05 02:54:59;;;;;;;9.03;4.72;;;;;;;8.93;100.00;100412.71;1686042;85;21178;-66
2022/10/05 02:57:34;;;;;;;7.78;4.05;;;;;;;8.95;100.00;100410.02;1687451;85;21089;-66
2022/10/05 03:00:13;;;;;;;9.23;4.28;;;;;;;8.91;100.00;100410.57;1713714;83;21151;-68
2022/10/05 03:03:15;;;;;;;6.83;4.20;;;;;;;8.90;100.00;100418.02;1744626;82;21032;-66
2022/10/05 03:05:53;;;;;;;6.37;4.50;;;;;;;8.91;100.00;100417.14;1684249;83;21166;-67
2022/10/05 03:08:28;;;;;;;7.85;4.03;;;;;;;8.89;100.00;100411.05;1711949;83;21799;-69
2022/10/05 03:11:07;;;;;;;7.45;4.30;;;;;;;8.91;100.00;100419.77;1712036;83;21160;-67
2022/10/05 03:14:00;;;;;;;8.45;4.30;;;;;;;8.92;100.00;100416.22;1703260;83;21537;-67
2022/10/05 03:16:48;;;;;;;6.25;4.15;;;;;;;8.91;100.00;100422.39;1712206;83;21113;-67
2022/10/05 03:19:36;;;;;;;8.65;4.30;;;;;;;8.84;100.00;100427.39;1712267;83;21058;-66
2022/10/05 03:22:14;;;;;;;8.55;4.40;;;;;;;8.77;100.00;100427.99;1747964;82;21141;-67
2022/10/05 03:25:14;;;;;;;6.78;4.20;;;;;;;8.77;100.00;100438.95;1711880;83;21041;-68
2022/10/05 03:28:04;;;;;;;;;;;;;;;8.77;100.00;100448.14;1750734;82;21091;-66
2022/10/05 03:30:36;;;;;;;8.80;4.37;;;;;;;8.74;100.00;100443.83;1747861;82;20465;-67
2022/10/05 03:33:27;;;;;;;8.78;4.83;;;;;;;8.72;100.00;100451.30;1748227;82;21060;-69
2022/10/05 03:36:19;;;;;;;;;;;;;;;8.66;100.00;100447.53;1750552;82;21139;-67
2022/10/05 03:39:04;;;;;;;16.05;4.55;;;;;;;8.63;100.00;100452.41;1718762;82;20173;-67
2022/10/05 03:42:01;;;;;;;6.10;4.35;;;;;;;8.63;100.00;100452.84;1747066;82;21061;-67
2022/10/05 03:44:50;;;;;;;5.12;4.12;;;;;;;8.59;100.00;100446.36;1748631;81;21005;-68
2022/10/05 03:47:37;;;;;;;6.22;4.33;;;;;;;8.57;100.00;100457.34;1748966;82;21159;-66
2022/10/05 03:50:39;;;;;;;9.35;4.90;;;;;;;8.54;100.00;100449.55;1749293;82;22975;-68
2022/10/05 03:53:26;;;;;;;8.95;4.75;;;;;;;8.54;100.00;100462.67;1712885;83;21058;-67
2022/10/05 03:56:07;;;;;;;5.70;4.47;;;;;;;8.50;100.00;100457.08;1749167;81;21658;-66
2022/10/05 04:01:01;;;;;;;8.25;4.75;;;;;;;8.54;100.00;100465.76;1822146;78;28126;-69
2022/10/05 04:03:40;;;;;;;8.18;4.30;;;;;;;8.45;100.00;100464.66;1783273;80;20950;-67
2022/10/05 04:06:26;;;;;;;7.15;4.78;;;;;;;8.45;100.00;100469.45;1778826;79;21194;-69
2022/10/05 04:09:06;;;;;;;6.25;4.42;;;;;;;8.44;100.00;100470.33;1757691;80;21499;-66
2022/10/05 04:11:42;;;;;;;5.62;4.30;;;;;;;8.42;100.00;100472.16;1783631;80;21019;-66
2022/10/05 04:14:29;;;;;;;6.28;3.98;;;;;;;8.38;100.00;100474.39;1779687;80;20993;-68
2022/10/05 04:17:00;;;;;;;8.65;4.53;;;;;;;8.34;100.00;100462.23;1746550;82;21028;-66
2022/10/05 04:19:43;;;;;;;8.40;4.65;;;;;;;8.31;100.00;100466.25;1746492;82;21748;-67
2022/10/05 04:22:24;;;;;;;8.53;5.30;;;;;;;8.27;100.00;100471.14;1743333;82;21020;-66
2022/10/05 04:25:06;;;;;;;8.03;4.55;;;;;;;8.24;100.00;100469.91;1746640;82;21072;-67
2022/10/05 04:27:38;;;;;;;7.37;4.40;;;;;;;8.22;100.00;100475.64;1746309;82;21116;-66
2022/10/05 04:30:12;;;;;;;10.35;4.60;;;;;;;8.19;100.00;100478.73;1746577;82;21526;-67
2022/10/05 04:32:56;;;;;;;7.10;4.30;;;;;;;8.23;100.00;100485.22;1746533;82;21119;-68
2022/10/05 04:35:52;;;;;;;6.80;4.08;;;;;;;8.24;100.00;100492.21;1746355;82;21061;-67
2022/10/05 04:38:40;;;;;;;6.92;4.30;;;;;;;8.29;100.00;100490.34;1746764;82;21070;-68
2022/10/05 04:41:52;;;;;;;8.05;4.00;;;;;;;8.34;100.00;100499.83;1737254;82;21117;-66
2022/10/05 04:44:47;;;;;;;6.40;4.15;;;;;;;8.42;100.00;100496.20;1746576;82;21520;-68
2022/10/05 04:47:37;;;;;;;5.60;4.37;;;;;;;8.49;100.00;100493.42;1746431;82;21756;-67
2022/10/05 04:50:32;;;;;;;6.12;4.62;;;;;;;8.57;100.00;100501.97;1746953;82;28086;-67
2022/10/05 04:53:18;;;;;;;8.08;4.58;;;;;;;8.61;100.00;100503.64;1746475;81;21088;-68
2022/10/05 04:55:59;;;;;;;9.28;4.17;;;;;;;8.67;100.00;100513.58;1746273;82;22107;-66
2022/10/05 04:58:57;;;;;;;8.45;4.22;;;;;;;8.70;100.00;100522.72;1746511;82;21120;-67
2022/10/05 05:01:44;;;;;;;5.05;3.65;;;;;;;8.76;100.00;100527.80;1753969;81;21195;-67
2022/10/05 05:04:54;;;;;;;8.88;4.20;;;;;;;8.74;100.00;100536.16;1721158;81;21598;-67
2022/10/05 05:07:53;;;;;;;8.45;4.22;;;;;;;8.76;100.00;100540.94;1753795;81;21056;-67
2022/10/05 05:10:42;;;;;;;6.42;4.50;;;;;;;8.80;100.00;100542.59;1753957;81;21061;-68
2022/10/05 05:13:26;;;;;;;6.47;4.05;;;;;;;8.84;100.00;100557.39;1727476;81;21468;-67
2022/10/05 05:16:25;;;;;;;5.30;4.10;;;;;;;8.88;100.00;100560.80;1753302;81;21222;-68
2022/10/05 05:19:07;;;;;;;8.85;4.40;;;;;;;8.90;100.00;100559.86;1753372;81;21080;-66
2022/10/05 05:22:13;;;;;;;6.33;4.28;;;;;;;8.93;100.00;100562.44;1753395;81;21057;-67
2022/10/05 05:25:23;;;;;;;8.63;4.20;;;;;;;8.96;100.00;100566.29;1753370;81;21521;-70
2022/10/05 05:27:59;;;;;;;6.22;3.98;;;;;;;8.97;100.00;100571.98;1753599;81;21025;-69
2022/10/05 05:30:51;;;;;;;10.38;4.45;;;;;;;9.01;100.00;100570.98;1753245;81;21115;-67
2022/10/05 05:33:52;;;;;;;5.10;3.98;;;;;;;9.04;100.00;100577.92;1753537;81;21108;-69
2022/10/05 05:36:27;;;;;;;5.50;3.98;;;;;;;9.10;100.00;100579.56;1753307;81;21096;-68
2022/10/05 05:39:21;;;;;;;6.50;3.77;;;;;;;9.16;100.00;100589.94;1753387;81;21643;-68
2022/10/05 05:41:57;;;;;;;7.78;3.62;;;;;;;9.21;100.00;100598.56;1753496;81;21040;-69
2022/10/05 05:44:35;;;;;;;7.12;3.90;;;;;;;9.24;100.00;100592.77;1763931;80;21104;-68
2022/10/05 05:47:26;;;;;;;11.30;4.25;;;;;;;9.29;100.00;100598.37;1782756;80;21037;-67
2022/10/05 05:50:09;;;;;;;7.95;4.25;;;;;;;9.33;100.00;100596.94;1782741;80;21034;-68
2022/10/05 05:52:50;;;;;;;13.43;4.10;;;;;;;9.48;100.00;100600.09;1783166;80;21038;-67
2022/10/05 05:55:25;;;;;;;8.28;4.00;;;;;;;9.91;100.00;100597.21;1781835;80;21053;-69
2022/10/05 05:58:06;;;;;;;5.90;3.27;;;;;;;10.66;100.00;100608.30;1782957;80;21009;-69
2022/10/05 06:00:47;;;;;;;5.67;3.20;;;;;;;11.16;100.00;100605.45;1777198;80;21094;-69
2022/10/05 06:03:37;;;;;;;5.47;3.10;;;;;;;11.37;100.00;100610.52;1677477;84;21073;-67
2022/10/05 06:06:10;;;;;;;6.15;3.08;;;;;;;11.40;100.00;100617.86;1773364;80;21050;-70
2022/10/05 06:08:51;;;;;;;4.70;2.80;;;;;;;11.35;100.00;100609.24;1773568;80;21034;-69
2022/10/05 06:11:44;;;;;;;4.97;2.85;;;;;;;11.38;100.00;100625.42;1772161;80;21215;-67
2022/10/05 06:14:36;;;;;;;8.93;3.20;;;;;;;11.52;100.00;100620.08;1772747;80;26458;-68
2022/10/05 06:17:29;;;;;;;5.65;2.80;;;;;;;11.59;100.00;100625.16;1773290;80;21132;-69
2022/10/05 06:19:57;;;;;;;7.10;3.10;;;;;;;11.97;100.00;100621.27;1773360;80;21147;-67
2022/10/05 06:22:33;;;;;;;6.05;2.60;;;;;;;12.19;100.00;100629.27;1773330;80;21096;-68
2022/10/05 06:25:21;;;;;;;13.03;3.00;;;;;;;12.55;100.00;100634.14;1773056;80;21562;-67
2022/10/05 06:28:11;;;;;;;4.65;2.95;;;;;;;13.15;100.00;100636.66;1773134;80;21062;-67
2022/10/05 06:30:52;;;;;;;3.58;2.47;;;;;;;13.91;100.00;100635.79;1773250;80;21066;-68
2022/10/05 06:33:38;;;;;;;3.77;2.80;;;;;;;14.28;100.00;100644.78;1773218;80;21030;-68
2022/10/05 06:36:39;;;;;;;6.87;2.52;;;;;;;14.34;100.00;100640.55;1773220;80;21085;-68
2022/10/05 06:39:22;;;;;;;;;;;;;;;14.22;100.00;100653.02;1762658;80;21074;-68
2022/10/05 06:41:55;;;;;;;7.75;2.92;;;;;;;13.78;100.00;100645.17;1774905;80;20566;-68
2022/10/05 06:44:54;;;;;;;6.95;2.40;;;;;;;13.33;100.00;100654.09;1773845;80;21078;-68
2022/10/05 06:47:37;;;;;;;5.03;2.67;;;;;;;12.97;100.00;100653.25;1772726;80;21051;-69
2022/10/05 06:50:23;;;;;;;6.50;2.60;;;;;;;12.73;100.00;100654.59;1746916;80;21547;-66
2022/10/05 06:53:30;;;;;;;6.12;2.37;;;;;;;12.55;100.00;100660.56;1732691;80;21132;-69
2022/10/05 06:56:14;;;;;;;7.12;2.50;;;;;;;12.26;100.00;100661.17;1743518;80;21052;-69
2022/10/05 06:59:10;;;;;;;5.97;2.12;;;;;;;12.08;100.00;100665.77;1775057;80;21066;-69
2022/10/05 07:02:10;;;;;;;4.67;2.83;;;;;;;12.02;100.00;100655.41;1753651;80;21060;-68
2022/10/05 07:04:55;;;;;;;3.92;2.75;;;;;;;12.04;100.00;100658.88;1753270;81;21536;-67
2022/10/05 07:07:56;;;;;;;4.45;2.45;;;;;;;12.29;100.00;100655.77;1760286;80;21053;-68
2022/10/05 07:11:03;;;;;;;8.83;2.80;;;;;;;12.53;100.00;100667.67;1765766;81;21097;-69
2022/10/05 07:14:16;;;;;;;7.53;2.45;;;;;;;12.71;100.00;100674.07;1709407;81;21005;-69
2022/10/05 07:16:51;;;;;;;7.20;2.75;;;;;;;12.66;100.00;100677.35;1766332;81;21077;-69
2022/10/05 07:19:32;;;;;;;8.78;2.77;;;;;;;12.51;100.00;100682.72;1765540;81;22892;-68
2022/10/05 07:22:19;;;;;;;8.75;3.02;;;;;;;12.40;100.00;100677.84;1766226;81;22074;-68
2022/10/05 07:25:27;;;;;;;8.93;3.02;;;;;;;12.37;100.00;100688.49;1765851;81;20983;-69
2022/10/05 07:28:04;;;;;;;5.17;2.33;;;;;;;12.34;100.00;100688.61;1766198;81;22225;-68
2022/10/05 07:30:40;;;;;;;5.37;2.75;;;;;;;12.26;100.00;100698.14;1765830;81;21100;-68
2022/10/05 07:33:27;;;;;;;4.87;2.85;;;;;;;12.26;100.00;100691.97;1765423;81;21577;-68
2022/10/05 07:39:16;;;;;;;3.92;2.80;;;;;;;13.05;100.00;100694.81;1765751;81;21361;-69
2022/10/05 07:41:47;;;;;;;4.40;2.60;;;;;;;13.89;100.00;100700.33;1765860;81;21056;-67
2022/10/05 07:44:29;;;;;;;4.00;2.12;;;;;;;14.96;100.00;100696.12;1757576;81;21077;-68
2022/10/05 07:47:26;;;;;;;7.12;2.08;;;;;;;16.15;96.37;100703.61;1738056;82;21709;-67
2022/10/05 07:50:35;;;;;;;6.17;2.22;;;;;;;16.90;93.03;100697.48;1735954;81;21244;-68
2022/10/05 07:53:24;;;;;;;4.15;2.00;;;;;;;17.16;78.46;100711.16;1738067;82;21043;-69
2022/10/05 07:55:54;;;;;;;3.33;1.47;;;;;;;16.89;66.01;100717.06;1738000;82;21066;-67
2022/10/05 07:58:30;;;;;;;5.05;2.05;;;;;;;16.24;67.52;100718.68;1737730;82;21531;-67
2022/10/05 08:01:22;;;;;;;3.33;1.90;;;;;;;15.88;69.32;100711.65;1742988;82;21244;-67
2022/10/05 08:03:55;;;;;;;6.90;1.90;;;;;;;15.58;70.06;100714.84;1749398;81;21102;-68
2022/10/05 08:06:56;;;;;;;3.60;1.77;;;;;;;15.41;71.42;100706.81;1748840;81;21573;-67
2022/10/05 08:09:34;;;;;;;4.20;2.22;;;;;;;15.23;70.97;100699.26;1719839;82;21055;-68
2022/10/05 08:12:31;;;;;;;4.37;2.00;;;;;;;15.09;71.73;100706.53;1749009;81;21571;-68
2022/10/05 08:15:19;;;;;;;4.33;2.05;;;;;;;15.00;72.70;100705.64;1749063;82;20990;-68
2022/10/05 08:17:59;;;;;;;4.95;2.33;;;;;;;14.94;71.91;100704.62;1749357;82;21361;-69
2022/10/05 08:20:51;;;;;;;4.93;2.00;;;;;;;14.78;72.39;100706.63;1749586;82;21143;-68
2022/10/05 08:23:34;;;;;;;4.08;2.25;;;;;;;14.64;73.09;100712.55;1749237;81;21108;-68
2022/10/05 08:26:22;;;;;;;5.53;2.22;;;;;;;14.58;73.45;100712.81;1749123;81;21053;-68
2022/10/05 08:29:21;;;;;;;4.40;2.33;;;;;;;14.68;74.38;100710.64;1749276;82;21549;-68
2022/10/05 08:32:04;;;;;;;6.10;2.00;;;;;;;14.83;73.97;100707.75;1749213;82;21121;-69
2022/10/05 08:34:48;;;;;;;6.67;2.52;;;;;;;15.03;72.71;100714.80;1749308;81;21135;-68
2022/10/05 08:37:31;;;;;;;6.03;2.02;;;;;;;15.15;71.20;100714.69;1748975;81;21585;-68
2022/10/05 08:40:43;;;;;;;4.00;1.82;;;;;;;15.19;71.32;100721.11;1749378;82;21221;-67
2022/10/05 08:44:05;;;;;;;3.72;1.70;;;;;;;15.23;69.87;100718.72;1749042;81;21092;-68
2022/10/05 08:46:49;;;;;;;3.80;2.35;;;;;;;15.29;68.98;100719.73;1749328;82;21258;-69
2022/10/05 08:49:30;;;;;;;2.52;1.60;;;;;;;15.37;68.29;100725.14;1749246;82;21647;-69
2022/10/05 08:52:21;;;;;;;3.50;1.87;;;;;;;15.30;67.87;100726.78;1749302;82;21084;-69
2022/10/05 08:55:24;;;;;;;7.10;1.75;;;;;;;15.26;68.50;100727.00;1720025;82;21064;-68
2022/10/05 08:58:36;;;;;;;5.20;1.77;;;;;;;15.20;67.74;100722.81;1748754;82;21691;-68
2022/10/05 09:01:23;;;;;;;3.33;1.80;;;;;;;15.18;66.92;100732.64;1747569;81;21739;-68
2022/10/05 09:04:22;;;;;;;3.08;1.52;;;;;;;15.03;68.04;100733.37;1751741;81;21067;-69
2022/10/05 09:07:31;;;;;;;3.35;1.87;;;;;;;14.84;68.74;100739.98;1751193;81;21104;-69
2022/10/05 09:10:43;;;;;;;3.87;2.02;;;;;;;14.43;68.72;100737.33;1751380;81;21029;-69
2022/10/05 09:13:52;;;;;;;5.47;1.50;;;;;;;14.15;70.60;100744.24;1751735;81;21139;-66
2022/10/05 09:16:59;;;;;;;4.60;1.70;;;;;;;13.88;71.87;100757.72;1751720;81;21179;-67
2022/10/05 09:20:02;;;;;;;3.33;1.77;;;;;;;13.78;72.56;100760.33;1751875;81;21085;-68
2022/10/05 09:22:55;;;;;;;24.85;2.80;;;;;;;13.66;73.60;100760.36;1715734;83;21083;-69
2022/10/05 09:25:43;;;;;;;5.03;2.02;;;;;;;13.59;75.73;100739.88;1715900;83;21080;-67
2022/10/05 09:28:21;;;;;;;3.37;2.20;;;;;;;13.64;76.22;100744.55;1739828;81;21040;-67
2022/10/05 09:31:42;;;;;;;4.42;2.10;;;;;;;13.64;76.08;100744.55;1752045;81;21200;-69
2022/10/05 09:34:31;;;;;;;5.58;2.10;;;;;;;13.62;75.99;100756.98;1751643;81;21517;-67
2022/10/05 09:37:30;;;;;;;5.97;2.08;;;;;;;13.50;76.59;100762.73;1751381;81;21119;-67
2022/10/05 09:40:34;;;;;;;4.87;2.08;;;;;;;13.46;77.50;100758.52;1751420;81;21083;-69
2022/10/05 09:43:29;;;;;;;3.17;1.98;;;;;;;13.71;77.57;100758.84;1751786;81;21077;-66
2022/10/05 09:46:09;;;;;;;6.25;2.10;;;;;;;13.91;76.93;100754.94;1751523;81;21138;-68
2022/10/05 09:49:10;;;;;;;7.65;1.85;;;;;;;13.97;74.29;100759.99;1751995;81;21045;-69
2022/10/05 09:52:05;;;;;;;3.52;1.90;;;;;;;13.99;73.57;100749.34;1751509;81;21037;-69
2022/10/05 09:55:01;;;;;;;5.83;2.00;;;;;;;14.04;74.02;100752.19;1751779;81;21510;-69
2022/10/05 09:58:14;;;;;;;6.33;2.15;;;;;;;14.08;73.49;100759.56;1751114;81;21009;-68
2022/10/05 10:00:58;;;;;;;3.85;2.20;;;;;;;14.17;73.54;100752.55;1713831;83;21571;-69
2022/10/05 10:04:08;;;;;;;6.03;2.00;;;;;;;14.28;73.71;100764.00;1697749;84;21204;-68
2022/10/05 10:07:07;;;;;;;;;;;;;;;14.42;73.40;100763.41;1746122;82;21060;-67
2022/10/05 10:09:54;;;;;;;3.15;1.90;;;;;;;14.77;73.87;100759.27;1745972;82;20493;-68
2022/10/05 10:12:59;;;;;;;3.35;1.80;;;;;;;15.52;69.54;100762.91;1745781;82;21565;-68
2022/10/05 10:15:49;;;;;;;3.70;1.75;;;;;;;16.35;65.92;100758.86;1745963;82;22202;-67
2022/10/05 10:18:30;;;;;;;3.92;1.77;;;;;;;17.01;63.32;100758.58;1745555;82;21118;-68
2022/10/05 10:21:32;;;;;;;3.27;1.75;;;;;;;17.77;59.97;100755.66;1745112;82;21362;-68
2022/10/05 10:24:32;;;;;;;5.30;1.90;;;;;;;18.54;59.99;100751.20;1745732;82;21048;-69
2022/10/05 10:27:27;;;;;;;8.95;2.17;;;;;;;19.41;57.31;100746.23;1745520;82;21048;-68
2022/10/05 10:30:23;;;;;;;4.60;1.42;;;;;;;20.37;55.09;100749.36;1745700;82;21101;-69
2022/10/05 10:33:36;;;;;;;2.85;1.32;;;;;;;20.78;49.43;100752.37;1745658;82;21068;-70
2022/10/05 10:36:58;;;;;;;2.45;1.40;;;;;;;20.31;48.27;100762.19;1745797;82;21088;-69
2022/10/05 10:39:35;;;;;;;2.85;1.40;;;;;;;19.66;51.22;100758.02;1745822;82;21092;-68
2022/10/05 10:42:41;;;;;;;3.33;1.77;;;;;;;19.33;52.06;100750.38;1745177;82;21028;-69
2022/10/05 10:45:42;;;;;;;4.22;1.90;;;;;;;18.91;52.65;100760.98;1745877;82;21617;-69
2022/10/05 10:48:30;;;;;;;2.92;1.50;;;;;;;18.41;54.16;100758.22;1745570;82;21025;-69
2022/10/05 10:51:25;;;;;;;3.25;1.35;;;;;;;18.08;55.61;100763.71;1745755;82;21056;-70
2022/10/05 10:54:33;;;;;;;3.47;1.60;;;;;;;17.82;57.28;100758.94;1746108;82;21107;-69
2022/10/05 10:57:11;;;;;;;3.27;1.47;;;;;;;17.64;56.56;100754.63;1721380;82;21118;-69
2022/10/05 11:00:02;;;;;;;3.37;1.50;;;;;;;17.45;56.43;100751.29;1745572;82;21142;-69
2022/10/05 11:02:51;;;;;;;2.20;1.60;;;;;;;17.19;57.26;100760.25;1749433;81;21053;-70
2022/10/05 11:05:26;;;;;;;5.72;1.70;;;;;;;16.89;58.49;100754.30;1751400;81;21564;-70
2022/10/05 11:08:19;;;;;;;4.30;1.60;;;;;;;16.69;58.95;100751.80;1751565;81;20993;-69
2022/10/05 11:11:11;;;;;;;4.05;1.90;;;;;;;16.48;59.45;100753.31;1747550;81;21591;-69
2022/10/05 11:13:54;;;;;;;;;;;;;;;16.15;59.19;100747.45;1754139;81;21268;-69
2022/10/05 11:16:55;;;;;;;3.08;1.50;;;;;;;15.96;60.56;100746.64;1751403;81;20200;-69
2022/10/05 11:19:52;;;;;;;4.00;1.50;;;;;;;15.93;61.58;100749.45;1752170;81;21084;-69
2022/10/05 11:22:54;;;;;;;3.62;1.70;;;;;;;15.99;61.14;100746.51;1751674;81;21001;-70
2022/10/05 11:25:57;;;;;;;3.62;1.57;;;;;;;16.07;60.90;100752.28;1751903;81;21056;-68
2022/10/05 11:28:50;;;;;;;3.27;1.85;;;;;;;16.01;61.43;100760.58;1751342;81;21299;-69
2022/10/05 11:31:48;;;;;;;3.95;1.67;;;;;;;15.79;61.32;100761.23;1751366;81;21084;-68
2022/10/05 11:35:11;;;;;;;3.10;1.77;;;;;;;15.58;62.38;100750.68;1751580;81;21232;-69
2022/10/05 11:38:17;;;;;;;3.08;1.80;;;;;;;15.49;63.69;100755.09;1751387;81;21072;-69
2022/10/05 11:41:06;;;;;;;5.05;2.10;;;;;;;15.34;64.44;100753.16;1751675;81;21060;-69
2022/10/05 11:43:41;;;;;;;3.80;1.90;;;;;;;15.27;64.93;100753.44;1751391;81;21135;-69
2022/10/05 11:46:44;;;;;;;5.72;1.90;;;;;;;15.23;65.25;100738.61;1749884;81;21116;-69
2022/10/05 11:49:52;;;;;;;3.98;1.70;;;;;;;15.21;65.74;100753.73;1751545;81;21094;-67
2022/10/05 11:52:43;;;;;;;3.83;2.20;;;;;;;15.08;65.92;100744.63;1751419;81;21043;-68
2022/10/05 11:55:28;;;;;;;3.20;1.80;;;;;;;15.00;66.95;100746.75;1751670;81;21576;-69
2022/10/05 11:57:59;;;;;;;3.47;2.10;;;;;;;14.94;66.95;100752.35;1751700;81;21467;-68
2022/10/05 12:00:39;;;;;;;4.47;2.22;;;;;;;14.87;67.95;100759.72;1751515;81;21089;-68
2022/10/05 12:03:24;;;;;;;5.92;2.83;;;;;;;14.83;68.28;100760.31;1751498;81;21107;-67
2022/10/05 12:06:15;;;;;;;7.20;2.42;;;;;;;14.71;68.78;100766.16;1751329;81;21085;-67
2022/10/05 12:09:04;;;;;;;5.08;2.10;;;;;;;14.60;69.46;100760.47;1751801;81;21119;-69
2022/10/05 12:12:14;;;;;;;3.15;2.20;;;;;;;14.48;69.60;100765.34;1751544;81;21076;-69
2022/10/05 12:15:02;;;;;;;5.20;2.20;;;;;;;14.41;70.47;100770.51;1751578;81;22173;-70
2022/10/05 12:17:39;;;;;;;7.47;2.27;;;;;;;14.34;71.28;100778.33;1751573;81;21536;-69
2022/10/05 12:20:20;;;;;;;6.92;2.37;;;;;;;14.27;71.60;100776.86;1751586;81;21691;-68
2022/10/05 12:22:58;;;;;;;4.12;2.33;;;;;;;14.27;71.75;100783.48;1751805;81;26827;-67
2022/10/05 12:25:30;;;;;;;6.62;2.80;;;;;;;14.27;72.05;100788.78;1751818;81;21149;-68
2022/10/05 12:28:04;;;;;;;7.03;2.70;;;;;;;14.24;71.89;100786.24;1751597;81;21052;-69
2022/10/05 12:30:56;;;;;;;4.90;2.75;;;;;;;14.20;72.54;100804.54;1751933;81;21568;-68
2022/10/05 12:33:34;;;;;;;5.92;2.75;;;;;;;14.19;72.86;100798.35;1751637;81;26510;-68
2022/10/05 12:36:14;;;;;;;5.30;2.83;;;;;;;14.15;72.99;100800.75;1722400;81;21077;-68
2022/10/05 12:38:54;;;;;;;6.10;2.90;;;;;;;14.16;73.47;100808.23;1751431;81;21221;-68
2022/10/05 12:41:36;;;;;;;5.95;3.00;;;;;;;14.18;73.88;100818.30;1751312;81;21502;-68
2022/10/05 12:44:18;;;;;;;9.30;3.33;;;;;;;14.18;73.82;100815.66;1771849;80;21087;-68
2022/10/05 12:47:11;;;;;;;11.15;3.25;;;;;;;14.16;73.48;100822.80;1782647;80;21578;-67
2022/10/05 12:50:02;;;;;;;3.15;2.30;;;;;;;14.14;74.12;100822.00;1782923;80;21005;-68
2022/10/05 12:52:56;;;;;;;7.47;2.35;;;;;;;14.13;73.34;100825.59;1782824;80;21586;-68
2022/10/05 12:55:34;;;;;;;3.10;2.10;;;;;;;14.06;72.37;100819.20;1782743;79;21489;-69
2022/10/05 13:02:19;;;;;;;5.65;2.30;;;;;;;13.91;74.25;100826.42;1814550;79;22696;-67
2022/10/05 13:04:52;;;;;;;9.60;2.62;;;;;;;13.88;73.98;100821.73;1787558;80;21088;-68
2022/10/05 13:07:50;;;;;;;4.90;2.50;;;;;;;13.85;73.89;100824.90;1745239;80;21578;-70
2022/10/05 13:10:31;;;;;;;6.10;2.30;;;;;;;13.78;74.45;100821.20;1787576;80;21155;-69
2022/10/05 13:13:25;;;;;;;10.00;3.20;;;;;;;13.74;75.15;100830.22;1710691;83;21589;-68